Terminal Aerodrome Forecast
Issued by NWS

Current Version | Previous Version | Text Only | Print | Product List | Glossary On
Versions: 1 2 3 4 5 6 7 8 9 10 11 12 13 14 15 16 17 18 19 20 21 22
000
FTUS43 KIND 280500
TAFBMG
TAF
KBMG 280520Z 2806/2906 30007KT P6SM SKC
     FM281000 31006KT 6SM BR SCT025
      TEMPO 2810/2814 BKN025
     FM281400 32010KT P6SM BKN040
     FM282100 33009KT P6SM SCT040
     FM290100 34004KT P6SM SKC
      AMD LTD TO CLD VIS AND WIND TIL 281300=

USA.gov is the U.S. government's official web portal to all federal, state and local government web resources and services.